createdAt,value
2017-06-11T00:00:47.351Z,16.31
2017-06-11T00:02:02.805Z,16.31
2017-06-11T00:03:18.200Z,16.27
2017-06-11T00:04:33.821Z,16.31
2017-06-11T00:05:49.319Z,16.29
2017-06-11T00:07:02.161Z,16.34
2017-06-11T00:08:17.673Z,16.2
2017-06-11T00:09:33.489Z,16.28
2017-06-11T00:10:49.107Z,16.31
2017-06-11T00:12:18.143Z,16.29
2017-06-11T00:13:33.616Z,16.29
2017-06-11T00:14:49.126Z,16.28
2017-06-11T00:16:04.765Z,16.27
2017-06-11T00:17:18.775Z,16.24
2017-06-11T00:18:32.960Z,16.25
2017-06-11T00:19:48.418Z,16.28
2017-06-11T00:21:03.796Z,16.28
2017-06-11T00:22:19.284Z,16.27
2017-06-11T00:23:34.740Z,16.2
2017-06-11T00:24:50.207Z,16.17
2017-06-11T00:26:05.643Z,16.21
2017-06-11T00:27:21.129Z,16.19
2017-06-11T00:28:35.276Z,16.14
2017-06-11T00:29:50.406Z,16.19
2017-06-11T00:31:06.054Z,16.14
2017-06-11T00:32:21.521Z,16.14
2017-06-11T00:33:36.935Z,16.16
2017-06-11T00:34:52.479Z,16.14
2017-06-11T00:36:21.629Z,16.11
2017-06-11T00:37:37.070Z,16.09
2017-06-11T00:38:52.782Z,16.01
2017-06-11T00:40:39.130Z,16.04
2017-06-11T00:41:54.571Z,16.02
2017-06-11T00:43:10.005Z,16.04
2017-06-11T00:44:25.432Z,16.01
2017-06-11T00:45:40.900Z,15.99
2017-06-11T00:46:56.377Z,15.94
2017-06-11T00:48:12.062Z,15.94
2017-06-11T00:49:27.536Z,15.96
2017-06-11T00:50:43.041Z,15.89
2017-06-11T00:51:58.538Z,15.95
2017-06-11T00:53:14.017Z,15.89
2017-06-11T00:54:29.296Z,15.92
2017-06-11T00:55:44.781Z,15.8
2017-06-11T00:57:00.253Z,15.89
2017-06-11T00:58:15.727Z,15.79
2017-06-11T00:59:31.297Z,15.87
2017-06-11T01:00:46.772Z,15.82
2017-06-11T01:02:02.246Z,15.82
2017-06-11T01:03:17.787Z,15.88
2017-06-11T01:04:33.444Z,15.8
2017-06-11T01:05:48.893Z,15.79
2017-06-11T01:07:04.366Z,15.76
2017-06-11T01:08:19.838Z,15.76
2017-06-11T01:09:35.250Z,15.63
2017-06-11T01:10:50.834Z,15.64
2017-06-11T01:12:06.259Z,15.75
2017-06-11T01:13:21.746Z,15.69
2017-06-11T01:14:37.156Z,15.69
2017-06-11T01:15:52.626Z,15.68
2017-06-11T01:17:08.085Z,15.55
2017-06-11T01:18:23.748Z,15.55
2017-06-11T01:19:39.165Z,15.55
2017-06-11T01:20:54.628Z,15.54
2017-06-11T01:22:10.116Z,15.45
2017-06-11T01:23:39.120Z,15.43
2017-06-11T01:24:54.556Z,15.43
2017-06-11T01:26:09.971Z,15.38
2017-06-11T01:27:25.443Z,15.38
2017-06-11T01:28:40.925Z,15.29
2017-06-11T01:29:56.159Z,15.24
2017-06-11T01:31:11.654Z,15.33
2017-06-11T01:32:27.111Z,15.35
2017-06-11T01:33:42.560Z,15.21
2017-06-11T01:34:57.978Z,15.24
2017-06-11T01:36:13.459Z,15.23
2017-06-11T01:37:28.918Z,15.23
2017-06-11T01:38:44.388Z,15.14
2017-06-11T01:39:59.831Z,15.08
2017-06-11T01:41:15.306Z,15.15
2017-06-11T01:42:30.761Z,15.02
2017-06-11T01:43:46.182Z,15.08
2017-06-11T01:45:01.657Z,15.08
2017-06-11T01:46:17.145Z,15.06
2017-06-11T01:47:32.584Z,15.13
2017-06-11T01:48:46.782Z,15.14
2017-06-11T01:50:33.079Z,15.08
2017-06-11T01:51:48.694Z,15.11
2017-06-11T01:53:02.865Z,15.05
2017-06-11T01:54:17.955Z,15.09
2017-06-11T01:55:31.723Z,15.06
2017-06-11T01:56:47.190Z,15.06
2017-06-11T01:58:02.812Z,15.11
2017-06-11T01:59:18.230Z,15.05
2017-06-11T02:00:32.404Z,15.14
2017-06-11T02:01:46.537Z,15.06
2017-06-11T02:03:01.981Z,15.11
2017-06-11T02:04:17.463Z,15.03
2017-06-11T02:05:32.860Z,15.14
2017-06-11T02:06:48.326Z,15.09
2017-06-11T02:08:03.811Z,15.09
2017-06-11T02:09:19.422Z,15.17
2017-06-11T02:10:33.601Z,15.11
2017-06-11T02:11:49.072Z,15.14
2017-06-11T02:13:04.743Z,15.06
2017-06-11T02:14:20.174Z,15.08
2017-06-11T02:15:35.679Z,15.06
2017-06-11T02:16:51.116Z,15.14
2017-06-11T02:18:06.617Z,15.15
2017-06-11T02:19:22.103Z,15.08
2017-06-11T02:20:37.568Z,15.08
2017-06-11T02:21:53.137Z,14.96
2017-06-11T02:23:08.653Z,14.96
2017-06-11T02:24:24.093Z,14.91
2017-06-11T02:25:39.627Z,14.95
2017-06-11T02:26:55.111Z,14.96
2017-06-11T02:28:10.513Z,14.96
2017-06-11T02:29:25.991Z,14.96
2017-06-11T02:30:41.466Z,14.87
2017-06-11T02:31:56.896Z,14.95
2017-06-11T02:33:12.061Z,14.84
2017-06-11T02:34:26.236Z,14.9
2017-06-11T02:35:41.711Z,14.87
2017-06-11T02:36:57.558Z,14.85
2017-06-11T02:38:11.593Z,14.8
2017-06-11T02:39:27.204Z,14.83
2017-06-11T02:40:42.671Z,14.77
2017-06-11T02:41:58.088Z,14.78
2017-06-11T02:43:13.568Z,14.75
2017-06-11T02:44:29.030Z,14.81
2017-06-11T02:45:44.458Z,14.8
2017-06-11T02:47:00.084Z,14.81
2017-06-11T02:48:15.516Z,14.78
2017-06-11T02:49:30.992Z,14.75
2017-06-11T02:50:46.471Z,14.77
2017-06-11T02:52:00.442Z,14.7
2017-06-11T02:53:16.090Z,14.78
2017-06-11T02:54:30.103Z,14.67
2017-06-11T02:55:45.519Z,14.67
2017-06-11T02:57:00.967Z,14.7
2017-06-11T02:58:15.111Z,14.65
2017-06-11T02:59:30.590Z,14.65
2017-06-11T03:00:46.087Z,14.65
2017-06-11T03:02:01.538Z,14.7
2017-06-11T03:03:17.024Z,14.66
2017-06-11T03:04:31.127Z,14.62
2017-06-11T03:05:46.567Z,14.56
2017-06-11T03:07:02.161Z,14.51
2017-06-11T03:08:17.661Z,14.37
2017-06-11T03:09:33.167Z,14.47
2017-06-11T03:10:48.608Z,14.43
2017-06-11T03:12:04.121Z,14.26
2017-06-11T03:13:19.563Z,14.26
2017-06-11T03:14:32.366Z,14.24
2017-06-11T03:15:46.716Z,14.31
2017-06-11T03:17:02.181Z,14.26
2017-06-11T03:18:16.204Z,14.29
2017-06-11T03:19:31.809Z,14.25
2017-06-11T03:20:47.208Z,14.22
2017-06-11T03:22:01.382Z,14.26
2017-06-11T03:23:16.852Z,14.25
2017-06-11T03:24:32.372Z,14.28
2017-06-11T03:25:46.576Z,14.47
2017-06-11T03:27:16.174Z,14.47
2017-06-11T03:28:31.798Z,14.37
2017-06-11T03:29:47.160Z,14.4
2017-06-11T03:31:02.630Z,14.47
2017-06-11T03:32:18.072Z,14.52
2017-06-11T03:33:33.535Z,14.48
2017-06-11T03:34:49.028Z,14.56
2017-06-11T03:36:04.434Z,14.5
2017-06-11T03:37:19.910Z,14.65
2017-06-11T03:38:35.520Z,14.67
2017-06-11T03:39:51.002Z,14.65
2017-06-11T03:41:06.457Z,14.8
2017-06-11T03:42:21.947Z,14.78
2017-06-11T03:45:06.442Z,14.78
2017-06-11T03:46:22.038Z,14.85
2017-06-11T03:47:37.456Z,14.91
2017-06-11T03:48:51.587Z,15.02
2017-06-11T03:50:07.029Z,14.93
2017-06-11T03:51:22.416Z,14.96
2017-06-11T03:52:37.836Z,14.93
2017-06-11T03:53:53.408Z,15.03
2017-06-11T03:55:08.874Z,15.06
2017-06-11T03:56:24.328Z,15.05
2017-06-11T03:57:39.974Z,14.96
2017-06-11T03:58:55.396Z,14.95
2017-06-11T04:00:10.832Z,15.02
2017-06-11T04:01:26.598Z,14.99
2017-06-11T04:02:42.023Z,15.02
2017-06-11T04:03:57.797Z,15
2017-06-11T04:05:12.883Z,15
2017-06-11T04:06:28.361Z,15.14
2017-06-11T04:07:43.747Z,15.05
2017-06-11T04:08:59.193Z,15.15
2017-06-11T04:10:28.237Z,15.14
2017-06-11T04:11:42.368Z,15.15
2017-06-11T04:12:57.862Z,15.14
2017-06-11T04:14:13.311Z,15.25
2017-06-11T04:15:28.749Z,15.15
2017-06-11T04:16:44.237Z,15.2
2017-06-11T04:17:59.694Z,15.23
2017-06-11T04:19:14.094Z,15.23
2017-06-11T04:20:29.735Z,15.24
2017-06-11T04:21:45.198Z,15.21
2017-06-11T04:23:00.714Z,15.23
2017-06-11T04:24:16.373Z,15.25
2017-06-11T04:25:31.823Z,15.21
2017-06-11T04:26:47.304Z,15.24
2017-06-11T04:28:01.473Z,15.29
2017-06-11T04:29:16.898Z,15.25
2017-06-11T04:30:32.317Z,15.33
2017-06-11T04:31:47.749Z,15.36
2017-06-11T04:33:03.372Z,15.39
2017-06-11T04:34:17.525Z,15.35
2017-06-11T04:35:32.998Z,15.35
2017-06-11T04:36:48.456Z,15.4
2017-06-11T04:38:03.827Z,15.45
2017-06-11T04:39:19.305Z,15.36
2017-06-11T04:40:34.725Z,15.46
2017-06-11T04:41:49.919Z,15.5
2017-06-11T04:43:04.046Z,15.57
2017-06-11T04:44:19.523Z,15.54
2017-06-11T04:45:34.970Z,15.6
2017-06-11T04:46:50.353Z,15.61
2017-06-11T04:48:05.811Z,15.63
2017-06-11T04:49:21.256Z,15.69
2017-06-11T04:50:36.737Z,15.69
2017-06-11T04:51:52.183Z,15.68
2017-06-11T04:53:07.589Z,15.68
2017-06-11T04:54:22.623Z,15.68
2017-06-11T04:55:38.117Z,15.76
2017-06-11T04:56:53.514Z,15.75
2017-06-11T04:58:22.525Z,15.76
2017-06-11T04:59:37.937Z,15.79
2017-06-11T05:00:53.408Z,15.84
2017-06-11T05:02:07.569Z,15.84
2017-06-11T05:03:23.021Z,15.88
2017-06-11T05:04:38.485Z,15.82
2017-06-11T05:05:53.969Z,15.94
2017-06-11T05:07:09.622Z,15.82
2017-06-11T05:08:25.048Z,15.84
2017-06-11T05:09:40.543Z,15.76
2017-06-11T05:10:56.027Z,15.7
2017-06-11T05:12:11.476Z,15.79
2017-06-11T05:13:26.978Z,15.72
2017-06-11T05:14:40.090Z,15.75
2017-06-11T05:15:55.637Z,15.78
2017-06-11T05:17:09.758Z,15.78
2017-06-11T05:18:24.871Z,15.8
2017-06-11T05:19:40.366Z,15.96
2017-06-11T05:20:55.844Z,15.96
2017-06-11T05:22:11.298Z,15.99
2017-06-11T05:23:24.120Z,16.02
2017-06-11T05:24:39.583Z,16.11
2017-06-11T05:25:54.723Z,16.06
2017-06-11T05:27:07.541Z,16.19
2017-06-11T05:28:22.977Z,16.17
2017-06-11T05:29:38.483Z,16.17
2017-06-11T05:30:52.839Z,16.2
2017-06-11T05:32:08.422Z,16.35
2017-06-11T05:33:23.957Z,16.39
2017-06-11T05:34:39.406Z,16.46
2017-06-11T05:35:54.898Z,16.43
2017-06-11T05:37:10.336Z,16.44
2017-06-11T05:38:24.476Z,16.5
2017-06-11T05:39:39.945Z,16.43
2017-06-11T05:40:55.570Z,16.42
2017-06-11T05:42:11.031Z,16.5
2017-06-11T05:43:25.054Z,16.59
2017-06-11T05:44:40.581Z,16.65
2017-06-11T05:45:56.036Z,16.61
2017-06-11T05:47:11.485Z,16.64
2017-06-11T05:48:27.046Z,16.76
2017-06-11T05:49:42.571Z,16.69
2017-06-11T05:50:56.718Z,16.83
2017-06-11T05:52:10.730Z,16.87
2017-06-11T05:53:25.075Z,16.93
2017-06-11T05:54:40.526Z,16.91
2017-06-11T05:55:56.372Z,16.96
2017-06-11T05:57:11.966Z,17.01
2017-06-11T05:58:27.438Z,17.09
2017-06-11T05:59:42.864Z,17.09
2017-06-11T06:00:55.707Z,17.12
2017-06-11T06:02:11.342Z,17.11
2017-06-11T06:03:26.771Z,17.19
2017-06-11T06:04:42.246Z,17.21
2017-06-11T06:05:57.694Z,17.23
2017-06-11T06:07:13.145Z,17.27
2017-06-11T06:08:28.544Z,17.31
2017-06-11T06:09:44.000Z,17.31
2017-06-11T06:10:59.494Z,17.46
2017-06-11T06:12:14.953Z,17.49
2017-06-11T06:13:29.155Z,17.49
2017-06-11T06:14:44.607Z,17.55
2017-06-11T06:16:00.023Z,17.61
2017-06-11T06:17:15.470Z,17.62
2017-06-11T06:18:30.898Z,17.62
2017-06-11T06:19:46.363Z,17.58
2017-06-11T06:21:01.844Z,17.67
2017-06-11T06:22:17.467Z,17.73
2017-06-11T06:23:32.912Z,17.8
2017-06-11T06:24:48.360Z,17.75
2017-06-11T06:26:03.779Z,17.76
2017-06-11T06:27:17.853Z,17.8
2017-06-11T06:28:33.331Z,17.91
2017-06-11T06:29:47.479Z,17.91
2017-06-11T06:31:02.960Z,17.91
2017-06-11T06:32:17.333Z,17.98
2017-06-11T06:33:32.776Z,17.87
2017-06-11T06:34:48.258Z,17.97
2017-06-11T06:36:03.953Z,18
2017-06-11T06:37:19.580Z,18.02
2017-06-11T06:38:35.018Z,18.02
2017-06-11T06:39:50.546Z,18.07
2017-06-11T06:41:06.032Z,18.15
2017-06-11T06:42:21.487Z,18.2
2017-06-11T06:43:36.994Z,18.15
2017-06-11T06:44:52.464Z,18.26
2017-06-11T06:46:07.937Z,18.4
2017-06-11T06:47:23.412Z,18.41
2017-06-11T06:48:38.843Z,18.28
2017-06-11T06:49:53.968Z,18.38
2017-06-11T06:51:08.098Z,18.41
2017-06-11T06:52:23.731Z,18.5
2017-06-11T06:53:39.203Z,18.56
2017-06-11T06:54:54.663Z,18.67
2017-06-11T06:56:10.153Z,18.62
2017-06-11T06:57:25.761Z,18.69
2017-06-11T06:58:41.240Z,18.73
2017-06-11T06:59:56.731Z,18.72
2017-06-11T07:01:12.216Z,18.67
2017-06-11T07:02:25.052Z,18.75
2017-06-11T07:03:39.211Z,18.78
2017-06-11T07:04:54.724Z,18.79
2017-06-11T07:06:10.253Z,18.84
2017-06-11T07:07:25.723Z,18.8
2017-06-11T07:08:40.838Z,18.88
2017-06-11T07:09:56.289Z,18.87
2017-06-11T07:11:10.459Z,18.87
2017-06-11T07:12:25.923Z,18.93
2017-06-11T07:13:41.453Z,18.97
2017-06-11T07:14:54.302Z,18.98
2017-06-11T07:16:09.960Z,19.03
2017-06-11T07:17:25.434Z,19.02
2017-06-11T07:18:40.576Z,19.08
2017-06-11T07:19:56.269Z,18.95
2017-06-11T07:22:40.762Z,19.06
2017-06-11T07:23:56.473Z,19.13
2017-06-11T07:25:11.900Z,19.12
2017-06-11T07:26:27.395Z,19.09
2017-06-11T07:27:42.824Z,19.13
2017-06-11T07:28:58.269Z,19.24
2017-06-11T07:30:13.745Z,19.31
2017-06-11T07:31:29.209Z,19.27
2017-06-11T07:32:43.114Z,19.25
2017-06-11T07:33:58.584Z,19.37
2017-06-11T07:35:14.300Z,19.35
2017-06-11T07:36:29.769Z,19.48
2017-06-11T07:37:45.242Z,19.43
2017-06-11T07:38:59.562Z,19.46
2017-06-11T07:40:15.037Z,19.53
2017-06-11T07:41:27.829Z,19.5
2017-06-11T07:42:43.302Z,19.67
2017-06-11T07:43:58.761Z,19.63
2017-06-11T07:45:14.227Z,19.67
2017-06-11T07:46:29.750Z,19.71
2017-06-11T07:47:45.262Z,19.71
2017-06-11T07:49:00.780Z,19.68
2017-06-11T07:50:16.465Z,19.86
2017-06-11T07:51:31.881Z,19.92
2017-06-11T07:52:47.365Z,19.89
2017-06-11T07:54:02.824Z,19.95
2017-06-11T07:55:18.271Z,20.05
2017-06-11T07:56:32.270Z,20.01
2017-06-11T07:57:46.430Z,20.19
2017-06-11T07:59:01.931Z,20.2
2017-06-11T08:00:16.098Z,20.24
2017-06-11T08:01:31.775Z,20.26
2017-06-11T08:02:47.217Z,20.34
2017-06-11T08:04:02.664Z,20.39
2017-06-11T08:05:16.905Z,20.46
2017-06-11T08:06:32.338Z,20.49
2017-06-11T08:07:47.722Z,20.43
2017-06-11T08:09:03.244Z,20.43
2017-06-11T08:10:18.708Z,20.51
2017-06-11T08:11:34.359Z,20.6
2017-06-11T08:12:48.904Z,20.68
2017-06-11T08:14:04.360Z,20.67
2017-06-11T08:15:19.820Z,20.73
2017-06-11T08:16:35.304Z,20.88
2017-06-11T08:17:49.343Z,20.81
2017-06-11T08:19:04.850Z,20.94
2017-06-11T08:20:19.044Z,20.93
2017-06-11T08:21:34.482Z,20.98
2017-06-11T08:22:50.046Z,21.1
2017-06-11T08:24:05.535Z,21.09
2017-06-11T08:25:20.998Z,21.18
2017-06-11T08:26:36.622Z,21.22
2017-06-11T08:27:52.439Z,21.34
2017-06-11T08:29:07.958Z,21.58
2017-06-11T08:30:23.441Z,21.6
2017-06-11T08:31:39.110Z,21.75
2017-06-11T08:32:54.679Z,21.86
2017-06-11T08:34:10.194Z,21.98
2017-06-11T08:35:24.384Z,21.98
2017-06-11T08:36:39.878Z,22.02
2017-06-11T08:37:54.111Z,22.2
2017-06-11T08:39:08.300Z,22.27
2017-06-11T08:40:23.959Z,22.34
2017-06-11T08:41:38.052Z,22.48
2017-06-11T08:42:53.512Z,22.6
2017-06-11T08:44:09.044Z,22.67
2017-06-11T08:45:55.486Z,22.76
2017-06-11T08:47:11.175Z,22.79
2017-06-11T08:48:27.558Z,22.85
2017-06-11T08:49:43.690Z,23.01
2017-06-11T08:50:59.696Z,22.99
2017-06-11T08:52:15.805Z,23.06
2017-06-11T08:53:32.044Z,23.23
2017-06-11T08:54:48.125Z,23.46
2017-06-11T08:56:04.273Z,23.7
2017-06-11T08:57:20.377Z,24.09
2017-06-11T08:58:36.875Z,24.6
2017-06-11T08:59:52.897Z,25.21
2017-06-11T09:01:08.993Z,25.92
2017-06-11T09:02:24.963Z,26.45
2017-06-11T09:03:41.112Z,26.98
2017-06-11T09:04:57.147Z,27.39
2017-06-11T09:06:13.208Z,27.76
2017-06-11T09:07:29.114Z,27.97
2017-06-11T09:08:45.182Z,28.16
2017-06-11T09:10:01.285Z,28.42
2017-06-11T09:11:17.256Z,28.73
2017-06-11T09:12:33.567Z,28.96
2017-06-11T09:13:49.656Z,28.98
2017-06-11T09:15:05.673Z,28.96
2017-06-11T09:16:21.831Z,29.01
2017-06-11T09:17:37.976Z,28.89
2017-06-11T09:18:52.745Z,29.02
2017-06-11T09:20:08.809Z,28.94
2017-06-11T09:21:25.223Z,29.16
2017-06-11T09:22:41.326Z,29.18
2017-06-11T09:23:57.361Z,29.47
2017-06-11T09:25:13.449Z,29.45
2017-06-11T09:26:29.639Z,29.54
2017-06-11T09:27:45.942Z,29.66
2017-06-11T09:29:00.641Z,29.81
2017-06-11T09:30:16.667Z,29.97
2017-06-11T09:31:32.767Z,30.12
2017-06-11T09:32:48.915Z,30.37
2017-06-11T09:34:04.947Z,30.37
2017-06-11T09:35:21.072Z,30.27
2017-06-11T09:36:37.292Z,30.51
2017-06-11T09:37:53.461Z,30.48
2017-06-11T09:39:22.996Z,30.54
2017-06-11T09:40:39.205Z,30.63
2017-06-11T09:41:55.516Z,30.66
2017-06-11T09:43:11.689Z,30.44
2017-06-11T09:44:27.840Z,30.42
2017-06-11T09:45:44.178Z,30.57
2017-06-11T09:47:00.359Z,30.6
2017-06-11T09:48:16.458Z,30.82
2017-06-11T09:49:32.654Z,31.09
2017-06-11T09:50:48.805Z,31.23
2017-06-11T09:52:04.959Z,31.47
2017-06-11T09:53:21.084Z,31.58
2017-06-11T09:54:37.324Z,31.73
2017-06-11T09:55:53.473Z,31.9
2017-06-11T09:57:09.661Z,31.88
2017-06-11T09:58:25.752Z,32.06
2017-06-11T09:59:41.939Z,32.22
2017-06-11T10:00:58.153Z,32.28
2017-06-11T10:02:14.145Z,32.1
2017-06-11T10:03:30.124Z,31.98
2017-06-11T10:04:46.251Z,31.75
2017-06-11T10:06:02.512Z,31.65
2017-06-11T10:07:18.973Z,31.38
2017-06-11T10:08:35.604Z,31.35
2017-06-11T10:09:51.822Z,31.35
2017-06-11T10:11:08.258Z,31.31
2017-06-11T10:12:23.047Z,31.23
2017-06-11T10:13:39.138Z,31.2
2017-06-11T10:14:55.304Z,31.41
2017-06-11T10:16:11.485Z,31.51
2017-06-11T10:17:27.768Z,31.44
2017-06-11T10:18:44.044Z,31.25
2017-06-11T10:20:00.324Z,31
2017-06-11T10:21:16.115Z,30.82
2017-06-11T10:22:32.276Z,30.59
2017-06-11T10:23:48.364Z,30.2
2017-06-11T10:25:04.484Z,30.11
2017-06-11T10:27:50.375Z,30.25
2017-06-11T10:29:06.447Z,30.57
2017-06-11T10:30:22.730Z,30.74
2017-06-11T10:31:38.528Z,30.88
2017-06-11T10:32:54.543Z,31
2017-06-11T10:34:10.593Z,31.07
2017-06-11T10:35:26.812Z,31.1
2017-06-11T10:36:42.540Z,31.05
2017-06-11T10:37:57.215Z,31.22
2017-06-11T10:39:13.177Z,31.2
2017-06-11T10:40:29.129Z,31.23
2017-06-11T10:41:45.195Z,31.25
2017-06-11T10:42:59.969Z,31.09
2017-06-11T10:44:16.131Z,30.88
2017-06-11T10:45:32.309Z,30.83
2017-06-11T10:46:48.453Z,30.88
2017-06-11T10:48:03.129Z,30.86
2017-06-11T10:49:19.371Z,30.94
2017-06-11T10:50:35.396Z,30.85
2017-06-11T10:51:51.487Z,30.94
2017-06-11T10:53:07.745Z,30.86
2017-06-11T10:54:24.068Z,30.94
2017-06-11T10:55:40.663Z,30.82
2017-06-11T10:56:57.029Z,30.6
2017-06-11T10:58:13.088Z,30.42
2017-06-11T10:59:29.135Z,30.44
2017-06-11T11:00:45.656Z,30.41
2017-06-11T11:02:02.239Z,30.37
2017-06-11T11:03:18.724Z,30.38
2017-06-11T11:04:35.229Z,30.37
2017-06-11T11:05:51.690Z,30.41
2017-06-11T11:07:08.079Z,30.69
2017-06-11T11:08:23.194Z,30.67
2017-06-11T11:09:39.610Z,30.47
2017-06-11T11:10:55.733Z,30.38
2017-06-11T11:12:10.575Z,30.14
2017-06-11T11:13:27.094Z,29.99
2017-06-11T11:14:43.598Z,29.84
2017-06-11T11:16:02.354Z,29.73
2017-06-11T11:17:20.822Z,29.77
2017-06-11T11:18:37.050Z,29.91
2017-06-11T11:19:53.269Z,29.91
2017-06-11T11:21:09.777Z,29.94
2017-06-11T11:22:26.187Z,29.88
2017-06-11T11:23:42.493Z,29.73
2017-06-11T11:24:58.690Z,29.6
2017-06-11T11:26:14.995Z,29.55
2017-06-11T11:27:31.286Z,29.53
2017-06-11T11:28:47.695Z,29.63
2017-06-11T11:30:03.962Z,29.72
2017-06-11T11:31:20.115Z,29.8
2017-06-11T11:32:36.466Z,29.7
2017-06-11T11:33:52.554Z,29.38
2017-06-11T11:35:09.278Z,29.31
2017-06-11T11:36:25.681Z,29.18
2017-06-11T11:37:40.388Z,29.02
2017-06-11T11:40:26.059Z,28.83
2017-06-11T11:41:42.256Z,28.73
2017-06-11T11:42:58.521Z,28.7
2017-06-11T11:44:14.754Z,28.64
2017-06-11T11:45:31.378Z,28.5
2017-06-11T11:46:47.805Z,28.49
2017-06-11T11:48:34.911Z,28.35
2017-06-11T11:49:51.133Z,28.16
2017-06-11T11:51:07.183Z,28.19
2017-06-11T11:52:23.491Z,28.02
2017-06-11T11:53:39.717Z,27.95
2017-06-11T11:54:55.930Z,27.77
2017-06-11T11:56:11.993Z,27.71
2017-06-11T11:57:28.264Z,27.72
2017-06-11T11:58:44.504Z,27.79
2017-06-11T12:00:00.606Z,27.7
2017-06-11T12:01:16.959Z,27.71
2017-06-11T12:02:46.621Z,27.87
2017-06-11T12:04:02.682Z,28.23
2017-06-11T12:05:18.535Z,28.39
2017-06-11T12:06:35.230Z,28.57
2017-06-11T12:07:52.201Z,28.44
2017-06-11T12:09:09.007Z,28.45
2017-06-11T12:10:26.120Z,28.36
2017-06-11T12:11:42.871Z,28.26
2017-06-11T12:12:59.936Z,28.19
2017-06-11T12:14:16.898Z,28.09
2017-06-11T12:15:33.273Z,27.97
2017-06-11T12:16:50.625Z,27.92
2017-06-11T12:18:07.881Z,27.95
2017-06-11T12:19:24.973Z,27.71
2017-06-11T12:20:42.556Z,27.63
2017-06-11T12:21:58.699Z,27.57
2017-06-11T12:23:14.618Z,27.52
2017-06-11T12:24:30.116Z,27.58
2017-06-11T12:25:45.578Z,27.6
2017-06-11T12:27:01.256Z,27.61
2017-06-11T12:28:16.925Z,27.74
2017-06-11T12:29:32.078Z,27.61
2017-06-11T12:30:47.387Z,27.53
2017-06-11T12:32:02.886Z,27.35
2017-06-11T12:33:18.407Z,27.26
2017-06-11T12:34:33.529Z,27.17
2017-06-11T12:35:49.137Z,27.03
2017-06-11T12:37:03.206Z,27.05
2017-06-11T12:38:18.772Z,26.98
2017-06-11T12:39:34.283Z,26.96
2017-06-11T12:40:49.766Z,26.93
2017-06-11T12:42:05.256Z,27.04
2017-06-11T12:43:20.759Z,26.96
2017-06-11T12:44:36.224Z,26.93
2017-06-11T12:45:51.799Z,27.04
2017-06-11T12:47:07.332Z,27.17
2017-06-11T12:48:22.895Z,27.23
2017-06-11T12:49:38.032Z,27.34
2017-06-11T12:50:53.551Z,27.42
2017-06-11T12:52:09.083Z,27.55
2017-06-11T12:53:24.534Z,27.58
2017-06-11T12:54:40.006Z,27.6
2017-06-11T12:55:55.509Z,27.52
2017-06-11T12:57:10.982Z,27.43
2017-06-11T12:58:26.500Z,27.35
2017-06-11T12:59:42.577Z,27.26
2017-06-11T13:00:58.087Z,27.24
2017-06-11T13:02:13.601Z,27.26
2017-06-11T13:03:29.070Z,27.28
2017-06-11T13:04:44.755Z,27.3
2017-06-11T13:05:58.954Z,27.15
2017-06-11T13:07:14.499Z,27.11
2017-06-11T13:08:29.999Z,27.08
2017-06-11T13:09:45.586Z,26.98
2017-06-11T13:11:01.346Z,26.89
2017-06-11T13:12:16.826Z,26.7
2017-06-11T13:13:30.834Z,26.55
2017-06-11T13:14:43.659Z,26.43
2017-06-11T13:15:59.194Z,26.36
2017-06-11T13:17:13.414Z,26.25
2017-06-11T13:18:28.940Z,26.33
2017-06-11T13:19:44.413Z,26.19
2017-06-11T13:20:59.893Z,26.16
2017-06-11T13:22:15.487Z,26.19
2017-06-11T13:23:30.989Z,26.11
2017-06-11T13:24:46.463Z,25.99
2017-06-11T13:26:01.603Z,26
2017-06-11T13:27:17.132Z,25.85
2017-06-11T13:28:32.684Z,25.77
2017-06-11T13:29:46.859Z,25.82
2017-06-11T13:31:02.403Z,25.87
2017-06-11T13:32:17.919Z,25.88
2017-06-11T13:33:33.058Z,25.99
2017-06-11T13:34:48.528Z,25.87
2017-06-11T13:36:04.023Z,25.87
2017-06-11T13:37:19.631Z,25.87
2017-06-11T13:38:35.322Z,25.92
2017-06-11T13:39:50.811Z,25.96
2017-06-11T13:41:06.302Z,25.93
2017-06-11T13:42:21.887Z,25.88
2017-06-11T13:43:37.360Z,25.94
2017-06-11T13:44:52.879Z,25.88
2017-06-11T13:46:08.477Z,25.9
2017-06-11T13:47:23.923Z,25.92
2017-06-11T13:48:38.146Z,25.84
2017-06-11T13:51:21.288Z,25.78
2017-06-11T13:52:36.796Z,25.73
2017-06-11T13:53:52.138Z,25.65
2017-06-11T13:55:07.640Z,25.66
2017-06-11T13:56:23.338Z,25.68
2017-06-11T13:57:38.809Z,25.65
2017-06-11T13:58:54.324Z,25.66
2017-06-11T14:00:09.981Z,25.64
2017-06-11T14:01:25.453Z,25.66
2017-06-11T14:02:40.957Z,25.69
2017-06-11T14:03:56.428Z,25.68
2017-06-11T14:05:11.911Z,25.65
2017-06-11T14:06:27.354Z,25.68
2017-06-11T14:07:41.512Z,25.76
2017-06-11T14:08:57.229Z,25.78
2017-06-11T14:10:12.754Z,25.87
2017-06-11T14:11:28.210Z,25.99
2017-06-11T14:12:42.280Z,26.06
2017-06-11T14:13:57.890Z,26.3
2017-06-11T14:15:13.387Z,26.27
2017-06-11T14:16:28.918Z,26.33
2017-06-11T14:17:44.390Z,26.31
2017-06-11T14:18:59.842Z,26.34
2017-06-11T14:20:15.524Z,26.3
2017-06-11T14:21:31.047Z,26.16
2017-06-11T14:22:46.551Z,26.12
2017-06-11T14:24:02.023Z,26.04
2017-06-11T14:25:17.538Z,26.04
2017-06-11T14:26:33.073Z,25.96
2017-06-11T14:27:48.635Z,25.78
2017-06-11T14:29:04.093Z,25.73
2017-06-11T14:30:19.828Z,25.74
2017-06-11T14:31:35.328Z,25.69
2017-06-11T14:32:50.990Z,25.73
2017-06-11T14:34:05.198Z,25.71
2017-06-11T14:35:20.847Z,25.77
2017-06-11T14:36:36.403Z,25.76
2017-06-11T14:37:51.909Z,25.74
2017-06-11T14:39:07.472Z,25.69
2017-06-11T14:40:22.965Z,25.68
2017-06-11T14:41:38.466Z,25.65
2017-06-11T14:42:53.977Z,25.65
2017-06-11T14:44:09.602Z,25.47
2017-06-11T14:45:23.869Z,25.36
2017-06-11T14:46:39.337Z,25.36
2017-06-11T14:47:54.829Z,25.36
2017-06-11T14:49:10.355Z,25.27
2017-06-11T14:50:25.796Z,25.31
2017-06-11T14:51:41.295Z,25.36
2017-06-11T14:52:55.470Z,25.4
2017-06-11T14:54:10.949Z,25.4
2017-06-11T14:55:26.373Z,25.44
2017-06-11T14:56:41.893Z,25.37
2017-06-11T14:57:56.114Z,25.49
2017-06-11T14:59:11.576Z,25.46
2017-06-11T15:00:27.117Z,25.52
2017-06-11T15:01:42.680Z,25.44
2017-06-11T15:02:56.897Z,25.44
2017-06-11T15:04:12.439Z,25.47
2017-06-11T15:05:27.933Z,25.47
2017-06-11T15:06:43.676Z,25.46
2017-06-11T15:07:59.124Z,25.49
2017-06-11T15:09:14.629Z,25.5
2017-06-11T15:10:30.175Z,25.5
2017-06-11T15:11:45.713Z,25.49
2017-06-11T15:13:01.213Z,25.4
2017-06-11T15:14:16.704Z,25.37
2017-06-11T15:15:32.419Z,25.39
2017-06-11T15:16:47.931Z,25.43
2017-06-11T15:18:03.390Z,25.4
2017-06-11T15:19:18.938Z,25.4
2017-06-11T15:20:34.471Z,25.36
2017-06-11T15:21:50.019Z,25.34
2017-06-11T15:23:19.100Z,25.25
2017-06-11T15:24:33.275Z,25.25
2017-06-11T15:25:48.767Z,25.19
2017-06-11T15:27:04.441Z,25.27
2017-06-11T15:28:20.157Z,25.07
2017-06-11T15:29:35.627Z,25.1
2017-06-11T15:30:51.127Z,25.1
2017-06-11T15:32:20.419Z,24.99
2017-06-11T15:33:36.085Z,24.9
2017-06-11T15:34:51.769Z,24.85
2017-06-11T15:36:07.252Z,24.8
2017-06-11T15:37:22.970Z,24.72
2017-06-11T15:38:38.103Z,24.65
2017-06-11T15:39:52.406Z,24.62
2017-06-11T15:41:07.925Z,24.58
2017-06-11T15:42:23.400Z,24.57
2017-06-11T15:43:39.086Z,24.54
2017-06-11T15:44:53.259Z,24.44
2017-06-11T15:46:08.738Z,24.44
2017-06-11T15:47:24.229Z,24.4
2017-06-11T15:48:39.738Z,24.35
2017-06-11T15:49:55.233Z,24.32
2017-06-11T15:51:09.586Z,24.32
2017-06-11T15:52:25.092Z,24.34
2017-06-11T15:53:40.612Z,24.32
2017-06-11T15:54:56.233Z,24.38
2017-06-11T15:56:11.704Z,24.25
2017-06-11T15:57:27.435Z,24.2
2017-06-11T15:58:43.117Z,24.19
2017-06-11T15:59:58.540Z,24.13
2017-06-11T16:01:13.990Z,24.09
2017-06-11T16:02:29.520Z,24.12
2017-06-11T16:03:45.035Z,24.22
2017-06-11T16:05:00.531Z,24.13
2017-06-11T16:06:13.357Z,24.07
2017-06-11T16:07:27.616Z,24.07
2017-06-11T16:08:43.124Z,24.05
2017-06-11T16:09:58.633Z,24.05
2017-06-11T16:11:12.794Z,24.09
2017-06-11T16:12:28.281Z,24.16
2017-06-11T16:13:43.843Z,24.2
2017-06-11T16:14:59.365Z,24.16
2017-06-11T16:16:14.933Z,24.19
2017-06-11T16:17:30.615Z,24.16
2017-06-11T16:18:45.719Z,24.16
2017-06-11T16:20:01.204Z,24.1
2017-06-11T16:21:16.880Z,24.2
2017-06-11T16:22:32.395Z,24.24
2017-06-11T16:23:47.974Z,24.29
2017-06-11T16:25:03.507Z,24.2
2017-06-11T16:26:19.067Z,24.29
2017-06-11T16:27:34.788Z,24.16